Time;durP1;ratioP1;P1;durP2;ratioP2;P2;SDS_P1;SDS_P2;PMS_P1;PMS_P2;Temp;Humidity;BMP_temperature;BMP_pressure;BME280_temperature;BME280_humidity;BME280_pressure;Samples;Min_cycle;Max_cycle;Signal;HPM_P1;HPM_P2
2021/04/09 00:00:58;;;;;;;7.65;6.88;;;;;;;;;;5093854;28;20197;-62
2021/04/09 00:03:24;;;;;;;7.15;6.53;;;;;;;;;;5093768;28;20209;-62
2021/04/09 00:05:51;;;;;;;7.45;6.65;;;;;;;;;;5093205;28;20736;-62
2021/04/09 00:08:18;;;;;;;6.78;6.20;;;;;;;;;;5093293;28;20561;-62
2021/04/09 00:10:45;;;;;;;7.53;6.50;;;;;;;;;;5093650;28;20205;-61
2021/04/09 00:13:12;;;;;;;8.00;7.20;;;;;;;;;;5094359;28;20207;-61
2021/04/09 00:15:39;;;;;;;11.93;7.10;;;;;;;;;;5094724;28;20227;-62
2021/04/09 00:18:06;;;;;;;8.10;7.10;;;;;;;;;;5094942;28;20192;-62
2021/04/09 00:20:33;;;;;;;7.30;6.60;;;;;;;;;;5094605;28;20199;-62
2021/04/09 00:23:00;;;;;;;9.18;6.78;;;;;;;;;;5096350;28;20208;-62
2021/04/09 00:25:26;;;;;;;8.10;6.82;;;;;;;;;;5098797;28;20569;-62
2021/04/09 00:27:53;;;;;;;10.25;7.22;;;;;;;;;;5098537;28;20693;-62
2021/04/09 00:30:23;;;;;;;8.75;6.68;;;;;;;;;;5098181;28;20207;-61
2021/04/09 00:32:51;;;;;;;8.75;6.53;;;;;;;;;;5097873;28;20199;-62
2021/04/09 00:35:18;;;;;;;8.10;6.05;;;;;;;;;;5097900;28;20223;-62
2021/04/09 00:37:45;;;;;;;8.98;8.10;;;;;;;;;;5097720;28;20210;-62
2021/04/09 00:40:12;;;;;;;7.60;6.80;;;;;;;;;;5097623;28;20217;-63
2021/04/09 00:42:39;;;;;;;8.50;6.95;;;;;;;;;;5097356;28;20201;-62
2021/04/09 00:45:07;;;;;;;7.53;6.75;;;;;;;;;;5096987;28;20220;-63
2021/04/09 00:47:33;;;;;;;6.88;5.95;;;;;;;;;;5096990;28;20568;-62
2021/04/09 00:50:01;;;;;;;10.98;6.75;;;;;;;;;;5097442;28;20199;-63
2021/04/09 00:52:30;;;;;;;7.35;6.43;;;;;;;;;;5097575;28;20202;-63
2021/04/09 00:54:57;;;;;;;6.50;5.85;;;;;;;;;;5097102;28;20219;-62
2021/04/09 00:57:24;;;;;;;9.18;6.50;;;;;;;;;;5096924;28;20573;-62
2021/04/09 00:59:51;;;;;;;7.10;6.22;;;;;;;;;;5097233;28;20269;-63
2021/04/09 01:02:18;;;;;;;9.05;6.53;;;;;;;;;;5096660;28;20671;-62
2021/04/09 01:04:45;;;;;;;10.70;6.72;;;;;;;;;;5097480;28;20226;-62
2021/04/09 01:07:13;;;;;;;7.47;5.97;;;;;;;;;;5097237;28;20705;-62
2021/04/09 01:09:39;;;;;;;6.70;5.40;;;;;;;;;;5097247;28;20218;-62
2021/04/09 01:12:07;;;;;;;9.15;5.88;;;;;;;;;;5097352;28;20202;-62
2021/04/09 01:14:34;;;;;;;7.38;5.97;;;;;;;;;;5097600;28;20217;-61
2021/04/09 01:17:03;;;;;;;10.73;6.53;;;;;;;;;;5098164;28;20263;-61
2021/04/09 01:19:43;;;;;;;8.60;5.80;;;;;;;;;;5097984;28;20683;-62
2021/04/09 01:22:10;;;;;;;7.90;6.35;;;;;;;;;;5098049;28;20184;-62
2021/04/09 01:24:47;;;;;;;9.27;6.75;;;;;;;;;;5097669;28;20226;-61
2021/04/09 01:27:33;;;;;;;7.40;6.13;;;;;;;;;;5097629;28;20187;-62
2021/04/09 01:30:19;;;;;;;10.18;6.32;;;;;;;;;;5097367;28;20190;-63
2021/04/09 01:32:47;;;;;;;5.93;5.32;;;;;;;;;;5096203;28;20197;-62
2021/04/09 01:35:16;;;;;;;5.93;5.20;;;;;;;;;;5101345;28;20225;-62
2021/04/09 01:37:44;;;;;;;6.15;4.95;;;;;;;;;;5110744;28;20207;-63
2021/04/09 01:40:13;;;;;;;8.70;5.40;;;;;;;;;;5096756;28;20210;-62
2021/04/09 01:42:41;;;;;;;7.72;5.43;;;;;;;;;;5095836;28;20667;-62
2021/04/09 01:45:10;;;;;;;8.88;6.03;;;;;;;;;;5095906;28;20250;-62
2021/04/09 01:47:37;;;;;;;5.85;5.20;;;;;;;;;;5095875;28;20253;-62
2021/04/09 01:50:10;;;;;;;7.53;5.53;;;;;;;;;;5096492;28;20255;-62
2021/04/09 01:52:37;;;;;;;6.40;5.18;;;;;;;;;;5096025;28;20187;-62
2021/04/09 01:55:05;;;;;;;6.70;6.10;;;;;;;;;;5096010;28;20328;-62
2021/04/09 01:57:33;;;;;;;7.72;5.85;;;;;;;;;;5096079;28;20206;-62
2021/04/09 02:00:00;;;;;;;10.38;6.85;;;;;;;;;;5096175;28;20604;-62
2021/04/09 02:02:28;;;;;;;6.50;5.15;;;;;;;;;;5095584;28;20694;-62
2021/04/09 02:04:55;;;;;;;6.35;5.75;;;;;;;;;;5095408;28;20222;-61
2021/04/09 02:07:24;;;;;;;6.90;5.40;;;;;;;;;;5095374;28;20605;-61
2021/04/09 02:09:51;;;;;;;7.25;5.65;;;;;;;;;;5095382;28;20229;-62
2021/04/09 02:12:18;;;;;;;7.05;5.45;;;;;;;;;;5095760;28;20203;-62
2021/04/09 02:14:46;;;;;;;7.85;4.75;;;;;;;;;;5095556;28;20249;-62
2021/04/09 02:17:13;;;;;;;6.30;5.70;;;;;;;;;;5097612;28;20203;-61
2021/04/09 02:19:40;;;;;;;5.60;4.85;;;;;;;;;;5096374;28;20203;-63
2021/04/09 02:22:07;;;;;;;8.13;5.97;;;;;;;;;;5095627;28;20206;-61
2021/04/09 02:24:35;;;;;;;6.25;5.20;;;;;;;;;;5095697;28;20273;-63
2021/04/09 02:27:02;;;;;;;6.70;5.35;;;;;;;;;;5096555;28;20234;-62
2021/04/09 02:29:29;;;;;;;8.23;6.45;;;;;;;;;;5098790;28;20235;-61
2021/04/09 02:31:56;;;;;;;6.63;5.93;;;;;;;;;;5101103;28;20214;-61
2021/04/09 02:34:23;;;;;;;8.38;4.75;;;;;;;;;;5102407;28;20277;-61
2021/04/09 02:36:50;;;;;;;9.13;6.95;;;;;;;;;;5096670;28;20210;-62
2021/04/09 02:39:20;;;;;;;9.38;5.90;;;;;;;;;;5095630;28;20199;-63
2021/04/09 02:41:51;;;;;;;7.20;6.00;;;;;;;;;;5095599;28;20207;-62
2021/04/09 02:44:17;;;;;;;6.15;5.55;;;;;;;;;;5095215;28;20195;-61
2021/04/09 02:46:48;;;;;;;9.20;6.05;;;;;;;;;;5094272;28;20207;-61
2021/04/09 02:49:15;;;;;;;6.78;5.95;;;;;;;;;;5094861;28;20237;-62
2021/04/09 02:51:43;;;;;;;8.43;5.78;;;;;;;;;;5094771;28;20554;-61
2021/04/09 02:54:11;;;;;;;7.45;5.70;;;;;;;;;;5094639;28;20207;-61
2021/04/09 02:56:39;;;;;;;9.57;6.47;;;;;;;;;;5095160;28;20214;-62
2021/04/09 02:59:10;;;;;;;6.57;5.03;;;;;;;;;;5095227;28;20199;-62
2021/04/09 03:01:37;;;;;;;9.27;6.45;;;;;;;;;;5095555;28;20191;-61
2021/04/09 03:04:04;;;;;;;10.05;5.97;;;;;;;;;;5095350;28;20199;-62
2021/04/09 03:06:31;;;;;;;9.85;5.40;;;;;;;;;;5095007;28;20219;-63
2021/04/09 03:08:58;;;;;;;9.27;6.03;;;;;;;;;;5095257;28;20219;-63
2021/04/09 03:11:25;;;;;;;8.57;5.85;;;;;;;;;;5096052;28;20206;-62
2021/04/09 03:13:52;;;;;;;11.13;5.93;;;;;;;;;;5095363;28;20257;-62
2021/04/09 03:16:20;;;;;;;9.63;5.97;;;;;;;;;;5095047;28;20222;-62
2021/04/09 03:18:47;;;;;;;7.72;5.80;;;;;;;;;;5097661;28;20580;-61
2021/04/09 03:21:14;;;;;;;9.32;7.35;;;;;;;;;;5104552;28;20257;-62
2021/04/09 03:23:41;;;;;;;7.65;6.85;;;;;;;;;;5103891;28;20203;-62
2021/04/09 03:26:08;;;;;;;12.57;6.93;;;;;;;;;;5102383;28;20223;-62
2021/04/09 03:28:34;;;;;;;7.75;6.60;;;;;;;;;;5101142;28;20230;-62
2021/04/09 03:31:01;;;;;;;11.23;7.45;;;;;;;;;;5100631;28;20211;-62
2021/04/09 03:33:29;;;;;;;14.20;8.40;;;;;;;;;;5100570;28;20214;-62
2021/04/09 03:35:55;;;;;;;13.07;6.55;;;;;;;;;;5099694;28;20228;-63
2021/04/09 03:38:22;;;;;;;9.50;6.95;;;;;;;;;;5098957;28;20201;-62
2021/04/09 03:40:49;;;;;;;11.07;7.70;;;;;;;;;;5098830;28;20207;-62
2021/04/09 03:43:17;;;;;;;8.55;6.47;;;;;;;;;;5100293;28;20217;-62
2021/04/09 03:45:44;;;;;;;10.05;5.93;;;;;;;;;;5098706;28;20230;-61
2021/04/09 03:48:11;;;;;;;7.38;5.80;;;;;;;;;;5095493;28;20244;-61
2021/04/09 03:50:38;;;;;;;9.18;6.22;;;;;;;;;;5106120;28;20202;-63
2021/04/09 03:53:05;;;;;;;8.30;5.82;;;;;;;;;;5104479;28;20207;-62
2021/04/09 03:55:32;;;;;;;5.70;5.10;;;;;;;;;;5096069;28;20252;-62
2021/04/09 03:57:59;;;;;;;9.95;5.90;;;;;;;;;;5096693;28;20207;-62
2021/04/09 04:00:26;;;;;;;11.90;6.70;;;;;;;;;;5099125;28;20206;-62
2021/04/09 04:02:53;;;;;;;7.95;6.05;;;;;;;;;;5094117;28;20207;-62
2021/04/09 04:07:59;;;;;;;12.95;6.70;;;;;;;;;;5112710;27;20540;-61
2021/04/09 04:10:26;;;;;;;9.63;7.03;;;;;;;;;;5112727;28;20196;-61
2021/04/09 04:12:52;;;;;;;9.38;6.30;;;;;;;;;;5112325;28;20203;-62
2021/04/09 04:15:19;;;;;;;10.68;5.80;;;;;;;;;;5112003;28;20306;-62
2021/04/09 04:17:46;;;;;;;10.38;6.45;;;;;;;;;;5111345;28;20208;-62
2021/04/09 04:20:13;;;;;;;11.77;7.53;;;;;;;;;;5111643;28;20211;-62
2021/04/09 04:22:40;;;;;;;8.93;6.13;;;;;;;;;;5111472;28;20256;-62
2021/04/09 04:25:08;;;;;;;8.57;6.28;;;;;;;;;;5111785;28;20225;-62
2021/04/09 04:27:35;;;;;;;11.85;6.35;;;;;;;;;;5111256;28;20219;-62
2021/04/09 04:30:02;;;;;;;7.90;7.00;;;;;;;;;;5111613;28;20255;-62
2021/04/09 04:32:29;;;;;;;8.52;6.57;;;;;;;;;;5111447;28;20203;-62
2021/04/09 04:34:56;;;;;;;9.13;6.25;;;;;;;;;;5110943;28;20224;-63
2021/04/09 04:37:22;;;;;;;10.30;7.15;;;;;;;;;;5111037;28;20320;-61
2021/04/09 04:39:49;;;;;;;7.90;7.10;;;;;;;;;;5110499;28;20253;-63
2021/04/09 04:42:17;;;;;;;12.13;6.55;;;;;;;;;;5110705;28;20206;-62
2021/04/09 04:44:43;;;;;;;12.05;6.57;;;;;;;;;;5110909;28;20223;-62
2021/04/09 04:47:10;;;;;;;8.50;5.93;;;;;;;;;;5110749;28;20226;-62
2021/04/09 04:49:37;;;;;;;8.73;6.03;;;;;;;;;;5110832;28;20199;-62
2021/04/09 04:52:04;;;;;;;10.88;6.22;;;;;;;;;;5110603;28;20584;-62
2021/04/09 04:54:31;;;;;;;7.47;6.20;;;;;;;;;;5110992;28;20756;-62
2021/04/09 04:56:58;;;;;;;12.90;7.20;;;;;;;;;;5113440;28;20203;-63
2021/04/09 04:59:25;;;;;;;7.25;6.35;;;;;;;;;;5113434;28;20202;-63
2021/04/09 05:01:52;;;;;;;12.93;6.10;;;;;;;;;;5112697;28;20207;-62
2021/04/09 05:04:19;;;;;;;10.38;6.25;;;;;;;;;;5111703;28;20577;-62
2021/04/09 05:06:45;;;;;;;13.18;6.68;;;;;;;;;;5110377;28;20252;-61
2021/04/09 05:09:12;;;;;;;10.65;6.93;;;;;;;;;;5110548;28;20203;-60
2021/04/09 05:11:39;;;;;;;9.35;6.70;;;;;;;;;;5110489;28;20211;-61
2021/04/09 05:14:06;;;;;;;7.30;6.20;;;;;;;;;;5110497;28;20196;-61
2021/04/09 05:16:33;;;;;;;8.43;6.55;;;;;;;;;;5110082;28;20199;-61
2021/04/09 05:19:00;;;;;;;8.95;6.35;;;;;;;;;;5098664;28;20203;-62
2021/04/09 05:21:28;;;;;;;10.27;6.80;;;;;;;;;;5096952;28;20226;-62
2021/04/09 05:23:55;;;;;;;9.15;7.00;;;;;;;;;;5096794;28;20571;-62
2021/04/09 05:26:22;;;;;;;7.43;6.10;;;;;;;;;;5096958;28;20227;-62
2021/04/09 05:28:48;;;;;;;8.20;6.65;;;;;;;;;;5098073;28;20671;-61
2021/04/09 05:31:15;;;;;;;6.97;6.25;;;;;;;;;;5097428;28;20203;-61
2021/04/09 05:33:43;;;;;;;12.57;7.05;;;;;;;;;;5097361;28;20258;-60
2021/04/09 05:36:10;;;;;;;8.02;5.45;;;;;;;;;;5097711;28;20778;-62
2021/04/09 05:38:36;;;;;;;13.98;7.43;;;;;;;;;;5097521;28;20711;-62
2021/04/09 05:41:03;;;;;;;8.50;6.90;;;;;;;;;;5097012;28;20204;-61
2021/04/09 05:43:30;;;;;;;10.55;6.95;;;;;;;;;;5096469;28;20222;-62
2021/04/09 05:45:57;;;;;;;9.82;6.68;;;;;;;;;;5096337;28;20273;-62
2021/04/09 05:48:23;;;;;;;12.50;6.80;;;;;;;;;;5095932;28;20219;-62
2021/04/09 05:50:51;;;;;;;9.90;6.75;;;;;;;;;;5096396;28;20205;-61
2021/04/09 05:53:18;;;;;;;11.50;7.72;;;;;;;;;;5095933;28;20210;-61
2021/04/09 05:55:45;;;;;;;7.22;6.53;;;;;;;;;;5096469;28;20223;-61
2021/04/09 05:58:12;;;;;;;9.32;6.22;;;;;;;;;;5096519;28;20227;-62
2021/04/09 06:00:39;;;;;;;10.82;7.20;;;;;;;;;;5096241;28;20270;-61
2021/04/09 06:03:06;;;;;;;9.07;6.65;;;;;;;;;;5098056;28;20212;-62
2021/04/09 06:05:32;;;;;;;7.57;6.20;;;;;;;;;;5104735;28;20220;-62
2021/04/09 06:08:00;;;;;;;7.30;6.13;;;;;;;;;;5097084;28;20228;-62
2021/04/09 06:10:27;;;;;;;11.25;6.75;;;;;;;;;;5095796;28;20196;-62
2021/04/09 06:12:54;;;;;;;9.20;6.40;;;;;;;;;;5095387;28;20676;-62
2021/04/09 06:15:21;;;;;;;11.05;7.45;;;;;;;;;;5095382;28;20574;-62
2021/04/09 06:17:48;;;;;;;6.45;5.78;;;;;;;;;;5095665;28;20219;-62
2021/04/09 06:20:15;;;;;;;9.40;6.72;;;;;;;;;;5095126;28;20734;-61
2021/04/09 06:22:42;;;;;;;7.82;6.50;;;;;;;;;;5095420;28;20248;-62
2021/04/09 06:25:10;;;;;;;9.90;6.95;;;;;;;;;;5095528;28;20227;-63
2021/04/09 06:27:37;;;;;;;7.38;6.05;;;;;;;;;;5095063;28;20695;-63
2021/04/09 06:30:05;;;;;;;6.68;5.85;;;;;;;;;;5094124;28;20204;-61
2021/04/09 06:32:31;;;;;;;8.32;5.80;;;;;;;;;;5095357;28;20196;-63
2021/04/09 06:34:58;;;;;;;10.18;7.40;;;;;;;;;;5095187;28;20235;-62
2021/04/09 06:37:25;;;;;;;10.48;6.50;;;;;;;;;;5095323;28;20199;-63
2021/04/09 06:39:52;;;;;;;8.52;6.38;;;;;;;;;;5095405;28;20199;-62
2021/04/09 06:42:19;;;;;;;9.55;6.93;;;;;;;;;;5096206;28;20205;-61
2021/04/09 06:44:46;;;;;;;9.32;6.25;;;;;;;;;;5095091;28;20232;-63
2021/04/09 06:47:13;;;;;;;10.57;6.60;;;;;;;;;;5096852;28;20216;-63
2021/04/09 06:49:40;;;;;;;10.55;6.72;;;;;;;;;;5099653;28;20215;-63
2021/04/09 06:52:10;;;;;;;11.05;6.68;;;;;;;;;;5098946;28;20228;-62
2021/04/09 06:54:37;;;;;;;11.52;6.40;;;;;;;;;;5096707;28;20277;-61
2021/04/09 06:57:04;;;;;;;8.40;7.15;;;;;;;;;;5095985;28;20203;-62
2021/04/09 06:59:32;;;;;;;6.95;6.15;;;;;;;;;;5095825;28;20695;-62
2021/04/09 07:02:02;;;;;;;8.35;6.13;;;;;;;;;;5094841;28;20204;-64
2021/04/09 07:04:28;;;;;;;11.75;6.45;;;;;;;;;;5094528;28;20580;-63
2021/04/09 07:06:55;;;;;;;8.90;6.32;;;;;;;;;;5095292;28;20224;-62
2021/04/09 07:09:22;;;;;;;12.00;6.18;;;;;;;;;;5095511;28;20246;-62
2021/04/09 07:11:49;;;;;;;11.63;5.68;;;;;;;;;;5095081;28;20207;-63
2021/04/09 07:14:16;;;;;;;8.00;6.05;;;;;;;;;;5094710;28;20204;-63
2021/04/09 07:16:57;;;;;;;9.23;6.60;;;;;;;;;;5094933;28;20269;-63
2021/04/09 07:19:32;;;;;;;8.63;6.00;;;;;;;;;;5096878;28;20245;-63
2021/04/09 07:22:01;;;;;;;8.93;6.03;;;;;;;;;;5096114;28;20778;-63
2021/04/09 07:24:28;;;;;;;11.38;7.13;;;;;;;;;;5094110;28;20246;-63
2021/04/09 07:26:55;;;;;;;7.57;5.78;;;;;;;;;;5094276;28;20227;-63
2021/04/09 07:29:38;;;;;;;7.70;5.93;;;;;;;;;;5094396;28;20211;-64
2021/04/09 07:32:23;;;;;;;13.00;6.63;;;;;;;;;;5094506;28;20196;-63
2021/04/09 07:34:52;;;;;;;10.35;7.13;;;;;;;;;;5094203;28;20235;-63
2021/04/09 07:37:19;;;;;;;10.27;5.88;;;;;;;;;;5094611;28;20214;-63
2021/04/09 07:39:46;;;;;;;9.18;6.75;;;;;;;;;;5094302;28;20208;-61
2021/04/09 07:42:13;;;;;;;7.53;5.78;;;;;;;;;;5101008;28;20204;-63
2021/04/09 07:44:42;;;;;;;9.65;6.60;;;;;;;;;;5098590;28;20216;-62
2021/04/09 07:47:10;;;;;;;12.07;6.97;;;;;;;;;;5099874;28;20227;-63
2021/04/09 07:49:37;;;;;;;6.60;5.88;;;;;;;;;;5099416;28;20394;-62
2021/04/09 07:52:11;;;;;;;7.55;6.40;;;;;;;;;;5096245;28;20204;-63
2021/04/09 07:54:38;;;;;;;15.43;9.68;;;;;;;;;;5095625;28;20224;-63
2021/04/09 07:57:05;;;;;;;8.13;6.95;;;;;;;;;;5094895;28;20200;-63
2021/04/09 07:59:38;;;;;;;10.18;6.47;;;;;;;;;;5094235;28;20200;-64
2021/04/09 08:02:05;;;;;;;8.10;6.65;;;;;;;;;;5094171;28;20204;-64
2021/04/09 08:04:38;;;;;;;9.27;6.10;;;;;;;;;;5093193;28;20228;-64
2021/04/09 08:07:05;;;;;;;10.13;7.40;;;;;;;;;;5093790;28;20699;-63
2021/04/09 08:09:49;;;;;;;7.45;6.30;;;;;;;;;;5094813;28;20544;-65
2021/04/09 08:12:30;;;;;;;9.10;7.00;;;;;;;;;;5094223;28;20184;-61
2021/04/09 08:14:57;;;;;;;13.68;7.03;;;;;;;;;;5093882;28;20302;-63
2021/04/09 08:17:26;;;;;;;10.23;8.30;;;;;;;;;;5093762;28;20200;-61
2021/04/09 08:19:56;;;;;;;8.52;6.53;;;;;;;;;;5093643;28;20236;-62
2021/04/09 08:22:23;;;;;;;10.93;6.93;;;;;;;;;;5094263;28;20253;-62
2021/04/09 08:24:50;;;;;;;10.60;7.30;;;;;;;;;;5093581;28;20224;-62
2021/04/09 08:27:17;;;;;;;12.00;6.25;;;;;;;;;;5093941;28;20216;-62
2021/04/09 08:29:45;;;;;;;8.15;6.55;;;;;;;;;;5093331;28;20652;-62
2021/04/09 08:32:12;;;;;;;8.13;7.03;;;;;;;;;;5093750;28;20257;-62
2021/04/09 08:34:39;;;;;;;10.23;7.25;;;;;;;;;;5094227;28;20216;-62
2021/04/09 08:37:06;;;;;;;10.32;7.30;;;;;;;;;;5093757;28;20246;-64
2021/04/09 08:39:33;;;;;;;12.82;7.20;;;;;;;;;;5093419;28;20282;-62
2021/04/09 08:42:00;;;;;;;10.60;7.63;;;;;;;;;;5094193;28;20208;-67
2021/04/09 08:44:27;;;;;;;14.30;6.60;;;;;;;;;;5093546;28;20462;-66
2021/04/09 08:46:54;;;;;;;8.27;6.83;;;;;;;;;;5093963;28;20850;-67
2021/04/09 08:49:22;;;;;;;10.40;7.00;;;;;;;;;;5093912;28;20495;-66
2021/04/09 08:51:50;;;;;;;11.73;7.60;;;;;;;;;;5093998;28;20442;-67
2021/04/09 08:54:17;;;;;;;8.50;7.20;;;;;;;;;;5096737;28;20812;-67
2021/04/09 08:56:44;;;;;;;9.00;6.90;;;;;;;;;;5097756;28;20442;-65
2021/04/09 08:59:11;;;;;;;9.13;7.70;;;;;;;;;;5097745;28;20450;-67
2021/04/09 09:01:38;;;;;;;13.63;7.10;;;;;;;;;;5097159;28;20446;-66
2021/04/09 09:04:19;;;;;;;9.40;7.30;;;;;;;;;;5096962;28;20441;-65
2021/04/09 09:06:47;;;;;;;13.33;7.50;;;;;;;;;;5096548;28;20489;-66
2021/04/09 09:09:27;;;;;;;8.60;7.03;;;;;;;;;;5097116;28;20481;-67
2021/04/09 09:11:55;;;;;;;10.80;7.77;;;;;;;;;;5096541;28;20430;-64
2021/04/09 09:14:36;;;;;;;9.80;7.40;;;;;;;;;;5096505;28;20484;-62
2021/04/09 09:17:18;;;;;;;11.00;6.70;;;;;;;;;;5096271;28;20483;-66
2021/04/09 09:19:45;;;;;;;9.40;6.90;;;;;;;;;;5096446;28;20446;-63
2021/04/09 09:22:14;;;;;;;7.20;5.87;;;;;;;;;;5096480;28;20533;-63
2021/04/09 09:25:00;;;;;;;8.70;6.03;;;;;;;;;;5097113;28;20811;-62
2021/04/09 09:27:42;;;;;;;8.23;5.70;;;;;;;;;;5097194;28;20457;-63
2021/04/09 09:30:24;;;;;;;7.43;5.43;;;;;;;;;;5097606;28;20437;-63
2021/04/09 09:33:10;;;;;;;9.30;5.70;;;;;;;;;;5097348;28;20809;-65
2021/04/09 09:35:59;;;;;;;6.33;5.73;;;;;;;;;;5096541;28;20469;-63
2021/04/09 09:38:44;;;;;;;7.53;5.37;;;;;;;;;;5098428;28;20434;-63
2021/04/09 09:41:12;;;;;;;8.67;5.47;;;;;;;;;;5102773;28;20465;-63
2021/04/09 09:43:41;;;;;;;8.53;5.20;;;;;;;;;;5105532;28;20446;-63
2021/04/09 09:46:09;;;;;;;6.83;5.43;;;;;;;;;;5098825;28;20494;-63
2021/04/09 09:48:35;;;;;;;6.43;4.50;;;;;;;;;;5105040;28;20537;-64
2021/04/09 09:51:25;;;;;;;7.93;5.87;;;;;;;;;;5099530;28;20473;-64
2021/04/09 09:53:58;;;;;;;8.40;5.47;;;;;;;;;;5098269;28;20443;-63
2021/04/09 09:56:28;;;;;;;6.70;5.40;;;;;;;;;;5097432;28;20469;-63
2021/04/09 09:58:55;;;;;;;6.80;4.87;;;;;;;;;;5099731;28;20422;-64
2021/04/09 10:01:26;;;;;;;10.33;5.33;;;;;;;;;;5099596;28;20515;-64
2021/04/09 10:03:53;;;;;;;4.93;4.43;;;;;;;;;;5096426;28;20422;-64
2021/04/09 10:06:26;;;;;;;8.70;4.93;;;;;;;;;;5095939;28;20501;-63
2021/04/09 10:08:53;;;;;;;7.60;4.70;;;;;;;;;;5096310;28;20507;-63
2021/04/09 10:11:21;;;;;;;8.63;5.60;;;;;;;;;;5097493;28;20461;-63
2021/04/09 10:13:49;;;;;;;4.90;4.20;;;;;;;;;;5097902;28;20541;-63
2021/04/09 10:16:18;;;;;;;6.43;4.70;;;;;;;;;;5098200;28;20566;-64
2021/04/09 10:18:48;;;;;;;8.30;5.00;;;;;;;;;;5099136;28;20453;-63
2021/04/09 10:21:16;;;;;;;6.57;4.70;;;;;;;;;;5098581;28;20426;-64
2021/04/09 10:23:43;;;;;;;5.17;3.80;;;;;;;;;;5098737;28;20443;-63
2021/04/09 10:26:10;;;;;;;3.70;3.40;;;;;;;;;;5098651;28;20489;-64
2021/04/09 10:28:38;;;;;;;5.47;3.53;;;;;;;;;;5096989;28;20446;-64
2021/04/09 10:31:13;;;;;;;7.27;4.27;;;;;;;;;;5096250;28;20468;-64
2021/04/09 10:33:40;;;;;;;5.33;3.13;;;;;;;;;;5095593;28;20829;-64
2021/04/09 10:36:17;;;;;;;4.43;3.17;;;;;;;;;;5095176;28;20993;-64
2021/04/09 10:38:44;;;;;;;4.33;3.73;;;;;;;;;;5095686;28;20442;-63
2021/04/09 10:41:22;;;;;;;5.27;3.60;;;;;;;;;;5095772;28;20779;-64
2021/04/09 10:43:54;;;;;;;5.43;3.57;;;;;;;;;;5095190;28;20830;-63
2021/04/09 10:46:22;;;;;;;4.77;4.00;;;;;;;;;;5095234;28;20523;-63
2021/04/09 10:48:48;;;;;;;4.57;3.70;;;;;;;;;;5095013;28;20449;-62
2021/04/09 10:51:15;;;;;;;7.37;3.63;;;;;;;;;;5095293;28;20445;-63
2021/04/09 10:53:42;;;;;;;4.93;3.70;;;;;;;;;;5094826;28;20457;-64
2021/04/09 10:56:10;;;;;;;4.50;4.00;;;;;;;;;;5094235;28;20510;-63
2021/04/09 10:58:37;;;;;;;3.97;3.57;;;;;;;;;;5094643;28;20442;-63
2021/04/09 11:01:04;;;;;;;4.13;3.70;;;;;;;;;;5094285;28;20438;-63
2021/04/09 11:03:32;;;;;;;6.70;3.90;;;;;;;;;;5094677;28;20457;-63
2021/04/09 11:06:00;;;;;;;6.50;3.60;;;;;;;;;;5094817;28;20469;-63
2021/04/09 11:08:31;;;;;;;5.43;4.13;;;;;;;;;;5094170;28;20462;-64
2021/04/09 11:11:01;;;;;;;4.40;3.07;;;;;;;;;;5094215;28;20438;-64
2021/04/09 11:13:32;;;;;;;4.40;3.37;;;;;;;;;;5094117;28;20446;-64
2021/04/09 11:15:59;;;;;;;5.97;3.43;;;;;;;;;;5093309;28;20473;-64
2021/04/09 11:18:40;;;;;;;3.70;3.30;;;;;;;;;;5093913;28;20430;-63
2021/04/09 11:21:08;;;;;;;3.10;2.80;;;;;;;;;;5093649;28;20875;-64
2021/04/09 11:23:39;;;;;;;4.77;3.20;;;;;;;;;;5093748;28;20922;-63
2021/04/09 11:26:16;;;;;;;4.80;3.10;;;;;;;;;;5093717;28;20551;-64
2021/04/09 11:28:42;;;;;;;3.47;2.90;;;;;;;;;;5093503;28;20901;-64
2021/04/09 11:31:11;;;;;;;3.27;2.93;;;;;;;;;;5093063;28;20446;-63
2021/04/09 11:33:39;;;;;;;3.30;3.00;;;;;;;;;;5093340;28;20454;-62
2021/04/09 11:36:17;;;;;;;5.30;3.20;;;;;;;;;;5095136;28;20554;-64
2021/04/09 11:38:43;;;;;;;3.90;3.00;;;;;;;;;;5093807;28;20938;-63
2021/04/09 11:41:26;;;;;;;4.00;2.80;;;;;;;;;;5093856;28;20468;-64
2021/04/09 11:43:53;;;;;;;4.17;3.77;;;;;;;;;;5093934;28;20446;-64
2021/04/09 11:46:32;;;;;;;5.60;3.40;;;;;;;;;;5095035;28;20458;-62
2021/04/09 11:49:01;;;;;;;5.30;3.50;;;;;;;;;;5094715;28;20441;-63
2021/04/09 11:51:29;;;;;;;5.33;3.17;;;;;;;;;;5094323;28;20442;-63
2021/04/09 11:53:59;;;;;;;6.40;4.10;;;;;;;;;;5093681;28;20442;-63
2021/04/09 11:56:39;;;;;;;5.17;4.40;;;;;;;;;;5093606;28;20487;-64
2021/04/09 11:59:10;;;;;;;5.43;3.87;;;;;;;;;;5093512;28;20434;-64
2021/04/09 12:01:37;;;;;;;6.57;3.73;;;;;;;;;;5093416;28;20434;-63
2021/04/09 12:04:04;;;;;;;11.40;4.10;;;;;;;;;;5093856;28;20435;-63
2021/04/09 12:06:37;;;;;;;5.83;3.77;;;;;;;;;;5093916;28;20458;-64
2021/04/09 12:09:04;;;;;;;5.73;3.60;;;;;;;;;;5094026;28;20491;-62
2021/04/09 12:11:31;;;;;;;5.00;3.70;;;;;;;;;;5093745;28;20449;-63
2021/04/09 12:13:58;;;;;;;4.30;3.83;;;;;;;;;;5094084;28;20453;-64
2021/04/09 12:16:24;;;;;;;5.43;3.87;;;;;;;;;;5094451;28;20470;-63
2021/04/09 12:18:52;;;;;;;5.13;3.87;;;;;;;;;;5094191;28;20467;-64
2021/04/09 12:21:18;;;;;;;4.50;4.10;;;;;;;;;;5094839;28;20446;-64
2021/04/09 12:23:46;;;;;;;4.80;3.63;;;;;;;;;;5094123;28;20957;-63
2021/04/09 12:26:13;;;;;;;3.63;3.27;;;;;;;;;;5093331;28;20842;-63
2021/04/09 12:28:40;;;;;;;3.90;3.53;;;;;;;;;;5096988;28;20482;-63
2021/04/09 12:31:06;;;;;;;6.03;4.00;;;;;;;;;;5099591;28;20446;-64
2021/04/09 12:33:33;;;;;;;4.70;3.40;;;;;;;;;;5097935;28;20438;-63
2021/04/09 12:36:00;;;;;;;5.40;3.77;;;;;;;;;;5098333;28;20469;-63
2021/04/09 12:38:26;;;;;;;3.83;3.27;;;;;;;;;;5097210;28;20936;-63
2021/04/09 12:40:54;;;;;;;4.50;3.57;;;;;;;;;;5098742;28;20880;-62
2021/04/09 12:43:21;;;;;;;3.57;3.10;;;;;;;;;;5098248;28;20501;-63
2021/04/09 12:45:49;;;;;;;4.30;3.33;;;;;;;;;;5099072;28;20462;-63
2021/04/09 12:48:16;;;;;;;3.43;3.13;;;;;;;;;;5098991;28;20477;-64
2021/04/09 12:50:42;;;;;;;3.80;3.10;;;;;;;;;;5098358;28;20449;-62
2021/04/09 12:53:10;;;;;;;3.90;3.50;;;;;;;;;;5097948;28;20446;-62
2021/04/09 12:55:36;;;;;;;4.07;3.60;;;;;;;;;;5097958;28;20523;-63
2021/04/09 12:58:04;;;;;;;4.60;3.63;;;;;;;;;;5097135;28;20438;-61
2021/04/09 13:00:31;;;;;;;4.33;3.13;;;;;;;;;;5096461;28;20976;-63
2021/04/09 13:03:00;;;;;;;3.30;2.83;;;;;;;;;;5097541;28;20826;-63
2021/04/09 13:05:29;;;;;;;4.40;3.70;;;;;;;;;;5096949;28;20553;-61
2021/04/09 13:07:55;;;;;;;4.50;4.10;;;;;;;;;;5096512;28;20490;-63
2021/04/09 13:10:22;;;;;;;4.80;3.90;;;;;;;;;;5096590;28;20442;-63
2021/04/09 13:12:49;;;;;;;3.83;3.43;;;;;;;;;;5096578;28;20446;-61
2021/04/09 13:15:17;;;;;;;6.00;3.80;;;;;;;;;;5096960;28;20466;-62
2021/04/09 13:17:44;;;;;;;4.23;3.40;;;;;;;;;;5097386;28;20444;-62
2021/04/09 13:20:11;;;;;;;4.50;3.20;;;;;;;;;;5097893;28;20449;-63
2021/04/09 13:22:38;;;;;;;3.80;3.33;;;;;;;;;;5100741;28;20499;-62
2021/04/09 13:25:05;;;;;;;4.40;3.87;;;;;;;;;;5104800;28;20458;-62
2021/04/09 13:27:32;;;;;;;4.33;3.53;;;;;;;;;;5103416;28;20855;-62
2021/04/09 13:29:58;;;;;;;4.47;3.57;;;;;;;;;;5102108;28;20454;-62
2021/04/09 13:32:26;;;;;;;4.23;3.83;;;;;;;;;;5097440;28;20808;-63
2021/04/09 13:34:53;;;;;;;4.80;3.70;;;;;;;;;;5096270;28;20466;-62
2021/04/09 13:37:20;;;;;;;3.67;2.80;;;;;;;;;;5096576;28;20441;-63
2021/04/09 13:39:46;;;;;;;3.40;3.10;;;;;;;;;;5096255;28;20799;-62
2021/04/09 13:42:13;;;;;;;3.73;3.43;;;;;;;;;;5097068;28;20442;-61
2021/04/09 13:44:40;;;;;;;4.40;3.40;;;;;;;;;;5096136;28;20619;-62
2021/04/09 13:47:07;;;;;;;6.40;3.10;;;;;;;;;;5096401;28;20508;-62
2021/04/09 13:49:34;;;;;;;5.77;3.67;;;;;;;;;;5096084;28;20442;-62
2021/04/09 13:52:01;;;;;;;5.43;2.97;;;;;;;;;;5096064;28;20449;-61
2021/04/09 13:54:28;;;;;;;4.87;3.70;;;;;;;;;;5095637;28;20496;-63
2021/04/09 13:56:55;;;;;;;5.43;3.73;;;;;;;;;;5096116;28;20438;-63
2021/04/09 13:59:22;;;;;;;4.00;3.40;;;;;;;;;;5096043;28;20529;-62
2021/04/09 14:01:49;;;;;;;5.33;4.47;;;;;;;;;;5096109;28;20495;-61
2021/04/09 14:04:16;;;;;;;4.17;3.77;;;;;;;;;;5096258;28;20528;-61
2021/04/09 14:06:44;;;;;;;5.00;3.83;;;;;;;;;;5095650;28;20453;-61
2021/04/09 14:09:11;;;;;;;4.70;3.60;;;;;;;;;;5095545;28;20532;-62
2021/04/09 14:11:38;;;;;;;6.17;4.40;;;;;;;;;;5095255;28;20447;-61
2021/04/09 14:14:05;;;;;;;5.80;3.70;;;;;;;;;;5095424;28;20466;-62
2021/04/09 14:16:32;;;;;;;4.80;4.40;;;;;;;;;;5096018;28;20511;-63
2021/04/09 14:18:59;;;;;;;4.40;3.77;;;;;;;;;;5095463;28;20442;-62
2021/04/09 14:21:26;;;;;;;4.20;3.80;;;;;;;;;;5095037;28;20913;-62
2021/04/09 14:23:54;;;;;;;5.43;4.30;;;;;;;;;;5095338;28;20536;-61
2021/04/09 14:26:21;;;;;;;4.60;4.20;;;;;;;;;;5095651;28;20514;-61
2021/04/09 14:28:49;;;;;;;5.00;4.10;;;;;;;;;;5095133;28;20490;-61
2021/04/09 14:31:16;;;;;;;4.10;3.77;;;;;;;;;;5095223;28;20442;-62
2021/04/09 14:33:43;;;;;;;5.03;3.80;;;;;;;;;;5100685;28;20442;-61
2021/04/09 14:36:10;;;;;;;3.60;3.30;;;;;;;;;;5108557;28;20462;-61
2021/04/09 14:38:37;;;;;;;5.27;3.70;;;;;;;;;;5111104;28;20494;-62
2021/04/09 14:41:05;;;;;;;3.93;3.57;;;;;;;;;;5108992;28;20441;-62
2021/04/09 14:43:32;;;;;;;5.20;3.63;;;;;;;;;;5109350;28;20492;-63
2021/04/09 14:45:59;;;;;;;5.23;4.00;;;;;;;;;;5109764;28;20462;-62
2021/04/09 14:48:26;;;;;;;3.67;3.37;;;;;;;;;;5104079;28;20505;-62
2021/04/09 14:50:53;;;;;;;4.37;3.50;;;;;;;;;;5102515;28;20453;-64